createdAt,value
2023-04-11T00:00:36.401Z,6.87
2023-04-11T00:05:40.111Z,7.00
2023-04-11T00:10:45.906Z,6.68
2023-04-11T00:15:53.451Z,7.55
2023-04-11T00:20:57.142Z,8.23
2023-04-11T00:26:02.467Z,6.25
2023-04-11T00:31:07.008Z,6.90
2023-04-11T00:36:12.056Z,7.30
2023-04-11T00:41:17.265Z,6.10
2023-04-11T00:46:22.645Z,6.62
2023-04-11T00:51:26.940Z,6.50
2023-04-11T00:56:32.243Z,6.43
2023-04-11T01:01:36.393Z,7.50
2023-04-11T01:06:41.717Z,6.87
2023-04-11T01:11:46.929Z,6.18
2023-04-11T01:16:51.408Z,6.78
2023-04-11T01:21:57.460Z,5.53
2023-04-11T01:27:03.722Z,7.32
2023-04-11T01:32:07.995Z,5.97
2023-04-11T01:37:11.891Z,5.93
2023-04-11T01:42:17.469Z,5.10
2023-04-11T01:47:21.247Z,5.45
2023-04-11T01:52:26.597Z,13.77
2023-04-11T01:57:31.980Z,7.80
2023-04-11T02:02:35.744Z,5.30
2023-04-11T02:07:41.203Z,5.65
2023-04-11T02:12:46.526Z,6.03
2023-04-11T02:17:54.139Z,5.93
2023-04-11T02:22:58.707Z,11.30
2023-04-11T02:28:05.114Z,6.75
2023-04-11T02:33:10.629Z,3.95
2023-04-11T02:38:14.414Z,5.32
2023-04-11T02:43:19.477Z,5.85
2023-04-11T02:48:23.194Z,4.80
2023-04-11T02:53:27.273Z,6.12
2023-04-11T02:58:32.976Z,6.18
2023-04-11T03:03:39.183Z,7.03
2023-04-11T03:08:44.091Z,11.20
2023-04-11T03:13:50.068Z,3.67
2023-04-11T03:18:54.262Z,6.10
2023-04-11T03:23:58.567Z,5.85
2023-04-11T03:29:03.819Z,3.85
2023-04-11T03:34:08.829Z,3.85
2023-04-11T03:39:14.792Z,4.60
2023-04-11T03:44:20.172Z,4.18
2023-04-11T03:49:24.286Z,4.40
2023-04-11T03:54:28.497Z,4.22
2023-04-11T03:59:33.988Z,4.65
2023-04-11T04:04:38.963Z,4.22
2023-04-11T04:09:43.748Z,4.85
2023-04-11T04:14:49.344Z,3.70
2023-04-11T04:19:53.476Z,5.22
2023-04-11T04:24:58.940Z,4.32
2023-04-11T04:30:05.103Z,4.00
2023-04-11T04:35:10.251Z,3.55
2023-04-11T04:40:15.962Z,4.53
2023-04-11T04:45:23.499Z,3.80
2023-04-11T04:50:27.651Z,3.70
2023-04-11T04:55:31.693Z,3.47
2023-04-11T05:00:36.956Z,3.45
2023-04-11T05:05:44.697Z,3.80
2023-04-11T05:10:49.100Z,3.33
2023-04-11T05:15:56.093Z,4.03
2023-04-11T05:21:02.528Z,2.60
2023-04-11T05:26:08.029Z,2.60
2023-04-11T05:31:14.218Z,2.83
2023-04-11T05:36:18.482Z,2.83
2023-04-11T05:41:22.391Z,3.22
2023-04-11T05:46:29.309Z,3.25
2023-04-11T05:51:33.182Z,2.80
2023-04-11T05:56:39.676Z,3.30
2023-04-11T06:01:44.839Z,3.10
2023-04-11T06:06:48.702Z,3.25
2023-04-11T06:11:52.417Z,3.70
2023-04-11T06:16:57.535Z,3.60
2023-04-11T06:22:01.529Z,3.55
2023-04-11T06:27:05.861Z,3.70
2023-04-11T06:32:12.601Z,3.83
2023-04-11T06:37:16.440Z,2.78
2023-04-11T06:42:20.244Z,3.47
2023-04-11T06:47:29.182Z,3.13
2023-04-11T06:52:33.001Z,4.50
2023-04-11T06:57:36.716Z,2.87
2023-04-11T07:02:42.008Z,2.95
2023-04-11T07:07:45.859Z,2.90
2023-04-11T07:12:49.534Z,3.03
2023-04-11T07:17:54.809Z,2.67
2023-04-11T07:22:58.710Z,3.00
2023-04-11T07:28:02.402Z,2.47
2023-04-11T07:33:07.549Z,3.42
2023-04-11T07:38:12.536Z,3.35
2023-04-11T07:43:16.254Z,2.85
2023-04-11T07:48:22.301Z,3.28
2023-04-11T07:53:26.879Z,3.00
2023-04-11T07:58:30.842Z,2.90
2023-04-11T08:03:36.192Z,3.75
2023-04-11T08:08:40.052Z,2.33
2023-04-11T08:13:43.982Z,3.28
2023-04-11T08:18:49.128Z,2.50
2023-04-11T08:23:52.987Z,2.97
2023-04-11T08:28:56.768Z,2.80
2023-04-11T08:34:03.878Z,2.75
2023-04-11T08:44:13.137Z,3.20
2023-04-11T08:49:18.314Z,2.20
2023-04-11T08:54:22.026Z,2.50
2023-04-11T08:59:26.310Z,2.45
2023-04-11T09:04:40.353Z,2.58
2023-04-11T09:09:44.252Z,2.62
2023-04-11T09:14:48.154Z,1.67
2023-04-11T09:19:53.329Z,2.30
2023-04-11T09:25:03.724Z,1.65
2023-04-11T09:30:20.149Z,2.65
2023-04-11T09:35:28.510Z,2.58
2023-04-11T09:45:54.065Z,2.78
2023-04-11T09:51:01.847Z,2.42
2023-04-11T09:56:06.951Z,1.75
2023-04-11T10:01:11.455Z,2.47
2023-04-11T10:06:24.051Z,2.33
2023-04-11T10:11:28.313Z,1.95
2023-04-11T10:16:34.276Z,2.10
2023-04-11T10:21:42.917Z,2.00
2023-04-11T10:32:11.578Z,2.40
2023-04-11T10:37:17.100Z,1.92
2023-04-11T10:42:30.433Z,1.92
2023-04-11T10:47:34.295Z,1.70
2023-04-11T10:52:39.924Z,2.17
2023-04-11T10:58:05.673Z,2.00
2023-04-11T11:03:15.596Z,1.42
2023-04-11T11:08:30.616Z,1.62
2023-04-11T11:13:41.400Z,1.58
2023-04-11T11:18:49.449Z,1.90
2023-04-11T11:23:59.310Z,1.92
2023-04-11T11:29:03.531Z,1.83
2023-04-11T11:39:15.842Z,2.40
2023-04-11T11:44:23.904Z,1.70
2023-04-11T11:54:44.293Z,1.48
2023-04-11T11:59:54.174Z,2.30
2023-04-11T12:04:59.932Z,1.20
2023-04-11T12:10:10.810Z,1.60
2023-04-11T12:15:16.127Z,1.73
2023-04-11T12:20:23.924Z,1.20
2023-04-11T12:25:29.381Z,1.40
2023-04-11T12:30:33.341Z,1.52
2023-04-11T12:35:37.054Z,1.02
2023-04-11T12:40:42.139Z,1.87
2023-04-11T12:45:45.849Z,1.67
2023-04-11T12:50:49.579Z,1.33
2023-04-11T12:55:54.694Z,1.70
2023-04-11T13:00:59.469Z,1.50
2023-04-11T13:06:03.209Z,1.40
2023-04-11T13:11:08.668Z,1.55
2023-04-11T13:16:12.814Z,1.45
2023-04-11T13:21:16.753Z,1.50
2023-04-11T13:26:21.792Z,1.23
2023-04-11T13:31:26.757Z,1.23
2023-04-11T13:36:32.215Z,1.12
2023-04-11T13:41:37.357Z,1.45
2023-04-11T13:46:41.080Z,1.33
2023-04-11T13:51:44.870Z,1.10
2023-04-11T13:56:50.084Z,1.27
2023-04-11T14:01:53.888Z,1.20
2023-04-11T14:06:57.649Z,1.52
2023-04-11T14:12:03.033Z,1.50
2023-04-11T14:17:06.771Z,1.20
2023-04-11T14:22:10.737Z,1.70
2023-04-11T14:27:15.844Z,2.17
2023-04-11T14:32:19.640Z,1.65
2023-04-11T14:37:23.361Z,1.85
2023-04-11T14:42:28.580Z,2.17
2023-04-11T14:47:32.556Z,1.35
2023-04-11T14:52:36.302Z,2.00
2023-04-11T14:57:46.370Z,1.95
2023-04-11T15:02:53.004Z,1.80
2023-04-11T15:07:56.809Z,1.85
2023-04-11T15:13:02.063Z,1.90
2023-04-11T15:18:26.932Z,2.08
2023-04-11T15:23:31.043Z,1.65
2023-04-11T15:28:37.836Z,1.55
2023-04-11T15:33:41.819Z,2.15
2023-04-11T15:38:46.064Z,1.95
2023-04-11T15:43:51.151Z,2.62
2023-04-11T15:48:54.829Z,1.95
2023-04-11T15:53:58.788Z,2.20
2023-04-11T15:59:03.962Z,1.85
2023-04-11T16:04:07.762Z,2.03
2023-04-11T16:09:12.300Z,2.50
2023-04-11T16:14:17.411Z,2.10
2023-04-11T16:19:21.111Z,1.65
2023-04-11T16:24:25.929Z,2.37
2023-04-11T16:29:31.145Z,1.87
2023-04-11T16:34:34.881Z,2.25
2023-04-11T16:39:38.639Z,2.65
2023-04-11T16:44:43.758Z,1.73
2023-04-11T16:49:47.546Z,1.58
2023-04-11T16:54:51.762Z,1.85
2023-04-11T16:59:57.070Z,1.90
2023-04-11T17:05:00.816Z,2.25
2023-04-11T17:10:05.242Z,1.67
2023-04-11T17:15:11.241Z,1.40
2023-04-11T17:20:14.998Z,2.65
2023-04-11T17:25:18.786Z,3.78
2023-04-11T17:30:24.087Z,2.90
2023-04-11T17:35:28.911Z,1.62
2023-04-11T17:40:32.905Z,2.47
2023-04-11T17:45:38.154Z,1.85
2023-04-11T17:50:46.048Z,2.67
2023-04-11T17:55:50.068Z,1.85
2023-04-11T18:00:57.027Z,2.78
2023-04-11T18:06:01.031Z,1.65
2023-04-11T18:11:05.133Z,1.55
2023-04-11T18:16:11.004Z,1.65
2023-04-11T18:21:15.881Z,2.05
2023-04-11T18:26:19.603Z,2.67
2023-04-11T18:31:24.698Z,2.30
2023-04-11T18:36:28.556Z,2.65
2023-04-11T18:41:32.487Z,2.53
2023-04-11T18:46:37.815Z,2.03
2023-04-11T18:51:41.553Z,2.72
2023-04-11T18:56:47.976Z,1.98
2023-04-11T19:01:54.562Z,1.70
2023-04-11T19:06:59.011Z,2.65
2023-04-11T19:12:02.763Z,1.80
2023-04-11T19:17:07.912Z,1.83
2023-04-11T19:22:11.869Z,1.65
2023-04-11T19:27:18.356Z,2.42
2023-04-11T19:32:23.495Z,1.90
2023-04-11T19:37:27.211Z,2.40
2023-04-11T19:42:32.992Z,1.80
2023-04-11T19:47:39.477Z,2.20
2023-04-11T19:52:44.004Z,2.65
2023-04-11T19:57:47.722Z,1.92
2023-04-11T20:02:52.979Z,1.80
2023-04-11T20:07:56.749Z,1.90
2023-04-11T20:13:00.560Z,2.12
2023-04-11T20:18:05.917Z,2.20
2023-04-11T20:23:10.464Z,3.47
2023-04-11T20:28:14.186Z,2.78
2023-04-11T20:33:19.274Z,2.95
2023-04-11T20:38:23.474Z,2.78
2023-04-11T20:43:27.247Z,2.62
2023-04-11T20:48:32.487Z,2.95
2023-04-11T20:53:36.257Z,2.45
2023-04-11T20:58:40.738Z,2.33
2023-04-11T21:03:47.015Z,2.45
2023-04-11T21:08:51.382Z,2.97
2023-04-11T21:13:55.788Z,2.72
2023-04-11T21:19:01.249Z,2.40
2023-04-11T21:24:07.762Z,2.25
2023-04-11T21:29:12.050Z,2.00
2023-04-11T21:34:17.202Z,3.05
2023-04-11T21:39:21.201Z,2.65
2023-04-11T21:44:25.034Z,3.28
2023-04-11T21:49:30.163Z,2.22
2023-04-11T21:54:34.852Z,2.60
2023-04-11T21:59:39.181Z,2.60
2023-04-11T22:05:01.004Z,2.10
2023-04-11T22:10:12.761Z,2.10
2023-04-11T22:15:18.176Z,2.63
2023-04-11T22:20:23.324Z,2.53
2023-04-11T22:25:27.081Z,3.08
2023-04-11T22:30:30.852Z,1.92
2023-04-11T22:35:35.901Z,2.40
2023-04-11T22:40:40.209Z,2.75
2023-04-11T22:45:46.727Z,2.80
2023-04-11T22:50:55.327Z,2.33
2023-04-11T22:55:59.035Z,2.25
2023-04-11T23:01:02.781Z,2.80
2023-04-11T23:06:08.874Z,2.10
2023-04-11T23:11:12.698Z,2.47
2023-04-11T23:16:16.390Z,1.98
2023-04-11T23:21:21.448Z,2.08
2023-04-11T23:26:25.277Z,1.65
2023-04-11T23:31:28.974Z,1.83
2023-04-11T23:36:34.535Z,1.45
2023-04-11T23:41:38.252Z,1.05
2023-04-11T23:46:42.172Z,1.05
2023-04-11T23:51:47.342Z,1.50
2023-04-11T23:56:51.014Z,1.37
